sensor_id;sensor_type;location;lat;lon;timestamp;temperature;humidity
75451;DHT22;64029;48.244;9.188;2023-08-21T00:01:32;20.90;80.50
75451;DHT22;64029;48.244;9.188;2023-08-21T00:03:58;20.90;80.60
75451;DHT22;64029;48.244;9.188;2023-08-21T00:06:25;20.80;80.40
75451;DHT22;64029;48.244;9.188;2023-08-21T00:08:52;20.80;80.40
75451;DHT22;64029;48.244;9.188;2023-08-21T00:11:19;20.80;80.50
75451;DHT22;64029;48.244;9.188;2023-08-21T00:13:46;20.70;80.50
75451;DHT22;64029;48.244;9.188;2023-08-21T00:16:16;20.70;80.60
75451;DHT22;64029;48.244;9.188;2023-08-21T00:18:43;20.70;80.70
75451;DHT22;64029;48.244;9.188;2023-08-21T00:21:10;20.70;81.40
75451;DHT22;64029;48.244;9.188;2023-08-21T00:23:37;20.70;80.70
75451;DHT22;64029;48.244;9.188;2023-08-21T00:26:04;20.60;80.70
75451;DHT22;64029;48.244;9.188;2023-08-21T00:28:31;20.60;80.80
75451;DHT22;64029;48.244;9.188;2023-08-21T00:31:01;20.50;80.80
75451;DHT22;64029;48.244;9.188;2023-08-21T00:33:31;20.50;80.90
75451;DHT22;64029;48.244;9.188;2023-08-21T00:35:58;20.50;80.90
75451;DHT22;64029;48.244;9.188;2023-08-21T00:38:25;20.50;80.90
75451;DHT22;64029;48.244;9.188;2023-08-21T00:40:52;20.50;81.00
75451;DHT22;64029;48.244;9.188;2023-08-21T00:43:20;20.40;81.10
75451;DHT22;64029;48.244;9.188;2023-08-21T00:45:48;20.40;81.90
75451;DHT22;64029;48.244;9.188;2023-08-21T00:48:16;20.30;80.80
75451;DHT22;64029;48.244;9.188;2023-08-21T00:50:45;20.30;80.80
75451;DHT22;64029;48.244;9.188;2023-08-21T00:53:12;20.30;80.80
75451;DHT22;64029;48.244;9.188;2023-08-21T00:55:40;20.30;81.00
75451;DHT22;64029;48.244;9.188;2023-08-21T00:58:08;20.30;81.10
75451;DHT22;64029;48.244;9.188;2023-08-21T01:00:36;20.20;81.00
75451;DHT22;64029;48.244;9.188;2023-08-21T01:03:03;20.20;81.00
75451;DHT22;64029;48.244;9.188;2023-08-21T01:05:30;20.20;81.20
75451;DHT22;64029;48.244;9.188;2023-08-21T01:08:01;20.10;81.10
75451;DHT22;64029;48.244;9.188;2023-08-21T01:10:39;20.10;81.20
75451;DHT22;64029;48.244;9.188;2023-08-21T01:13:18;20.10;82.00
75451;DHT22;64029;48.244;9.188;2023-08-21T01:15:47;20.00;81.30
75451;DHT22;64029;48.244;9.188;2023-08-21T01:18:17;20.00;81.30
75451;DHT22;64029;48.244;9.188;2023-08-21T01:20:44;20.00;80.90
75451;DHT22;64029;48.244;9.188;2023-08-21T01:23:32;20.00;81.10
75451;DHT22;64029;48.244;9.188;2023-08-21T01:25:59;20.00;81.30
75451;DHT22;64029;48.244;9.188;2023-08-21T01:28:26;20.00;81.30
75451;DHT22;64029;48.244;9.188;2023-08-21T01:30:59;19.90;81.40
75451;DHT22;64029;48.244;9.188;2023-08-21T01:33:30;19.90;81.50
75451;DHT22;64029;48.244;9.188;2023-08-21T01:36:02;19.80;81.40
75451;DHT22;64029;48.244;9.188;2023-08-21T01:38:32;19.80;81.50
75451;DHT22;64029;48.244;9.188;2023-08-21T01:41:00;19.80;81.50
75451;DHT22;64029;48.244;9.188;2023-08-21T01:43:27;19.70;81.30
75451;DHT22;64029;48.244;9.188;2023-08-21T01:45:54;19.70;81.40
75451;DHT22;64029;48.244;9.188;2023-08-21T01:48:21;19.70;81.40
75451;DHT22;64029;48.244;9.188;2023-08-21T01:50:48;19.60;81.30
75451;DHT22;64029;48.244;9.188;2023-08-21T01:53:15;19.60;81.30
75451;DHT22;64029;48.244;9.188;2023-08-21T01:55:43;19.60;81.30
75451;DHT22;64029;48.244;9.188;2023-08-21T01:58:10;19.60;81.30
75451;DHT22;64029;48.244;9.188;2023-08-21T02:00:37;19.60;81.50
75451;DHT22;64029;48.244;9.188;2023-08-21T02:03:04;19.50;81.40
75451;DHT22;64029;48.244;9.188;2023-08-21T02:05:36;19.50;81.30
75451;DHT22;64029;48.244;9.188;2023-08-21T02:08:03;19.50;81.40
75451;DHT22;64029;48.244;9.188;2023-08-21T02:10:30;19.50;81.60
75451;DHT22;64029;48.244;9.188;2023-08-21T02:12:58;19.40;81.60
75451;DHT22;64029;48.244;9.188;2023-08-21T02:15:25;19.40;81.60
75451;DHT22;64029;48.244;9.188;2023-08-21T02:17:52;19.40;81.70
75451;DHT22;64029;48.244;9.188;2023-08-21T02:20:20;19.40;81.80
75451;DHT22;64029;48.244;9.188;2023-08-21T02:22:46;19.40;81.80
75451;DHT22;64029;48.244;9.188;2023-08-21T02:25:13;19.30;81.80
75451;DHT22;64029;48.244;9.188;2023-08-21T02:27:40;19.30;81.80
75451;DHT22;64029;48.244;9.188;2023-08-21T02:30:09;19.30;81.80
75451;DHT22;64029;48.244;9.188;2023-08-21T02:32:36;19.30;81.90
75451;DHT22;64029;48.244;9.188;2023-08-21T02:35:06;19.20;82.00
75451;DHT22;64029;48.244;9.188;2023-08-21T02:37:33;19.20;82.10
75451;DHT22;64029;48.244;9.188;2023-08-21T02:40:00;19.20;82.10
75451;DHT22;64029;48.244;9.188;2023-08-21T02:42:26;19.20;82.10
75451;DHT22;64029;48.244;9.188;2023-08-21T02:44:53;19.20;82.30
75451;DHT22;64029;48.244;9.188;2023-08-21T02:47:20;19.20;82.20
75451;DHT22;64029;48.244;9.188;2023-08-21T02:49:47;19.10;81.90
75451;DHT22;64029;48.244;9.188;2023-08-21T02:52:14;19.10;82.10
75451;DHT22;64029;48.244;9.188;2023-08-21T02:54:41;19.10;82.00
75451;DHT22;64029;48.244;9.188;2023-08-21T02:57:07;19.10;82.20
75451;DHT22;64029;48.244;9.188;2023-08-21T02:59:34;19.10;82.10
75451;DHT22;64029;48.244;9.188;2023-08-21T03:02:01;19.00;82.10
75451;DHT22;64029;48.244;9.188;2023-08-21T03:04:29;19.00;82.10
75451;DHT22;64029;48.244;9.188;2023-08-21T03:06:56;18.90;82.20
75451;DHT22;64029;48.244;9.188;2023-08-21T03:09:23;18.90;82.10
75451;DHT22;64029;48.244;9.188;2023-08-21T03:11:49;18.90;82.10
75451;DHT22;64029;48.244;9.188;2023-08-21T03:14:16;18.90;82.00
75451;DHT22;64029;48.244;9.188;2023-08-21T03:16:43;18.90;82.10
75451;DHT22;64029;48.244;9.188;2023-08-21T03:19:10;18.90;82.40
75451;DHT22;64029;48.244;9.188;2023-08-21T03:21:38;18.90;82.50
75451;DHT22;64029;48.244;9.188;2023-08-21T03:24:06;18.80;82.30
75451;DHT22;64029;48.244;9.188;2023-08-21T03:26:33;18.80;82.10
75451;DHT22;64029;48.244;9.188;2023-08-21T03:29:00;18.80;82.50
75451;DHT22;64029;48.244;9.188;2023-08-21T03:31:27;18.70;82.50
75451;DHT22;64029;48.244;9.188;2023-08-21T03:33:54;18.70;82.60
75451;DHT22;64029;48.244;9.188;2023-08-21T03:36:21;18.70;82.60
75451;DHT22;64029;48.244;9.188;2023-08-21T03:38:57;18.70;82.60
75451;DHT22;64029;48.244;9.188;2023-08-21T03:41:24;18.60;82.40
75451;DHT22;64029;48.244;9.188;2023-08-21T03:43:51;18.60;82.70
75451;DHT22;64029;48.244;9.188;2023-08-21T03:46:17;18.60;82.70
75451;DHT22;64029;48.244;9.188;2023-08-21T03:48:44;18.60;82.90
75451;DHT22;64029;48.244;9.188;2023-08-21T03:51:14;18.60;83.00
75451;DHT22;64029;48.244;9.188;2023-08-21T03:53:41;18.60;82.90
75451;DHT22;64029;48.244;9.188;2023-08-21T03:56:09;18.60;82.70
75451;DHT22;64029;48.244;9.188;2023-08-21T03:58:36;18.50;82.50
75451;DHT22;64029;48.244;9.188;2023-08-21T04:01:03;18.50;82.50
75451;DHT22;64029;48.244;9.188;2023-08-21T04:03:30;18.50;82.30
75451;DHT22;64029;48.244;9.188;2023-08-21T04:05:57;18.50;82.60
75451;DHT22;64029;48.244;9.188;2023-08-21T04:08:24;18.40;82.60
75451;DHT22;64029;48.244;9.188;2023-08-21T04:10:51;18.40;82.60
75451;DHT22;64029;48.244;9.188;2023-08-21T04:13:20;18.40;82.70
75451;DHT22;64029;48.244;9.188;2023-08-21T04:15:48;18.40;82.90
75451;DHT22;64029;48.244;9.188;2023-08-21T04:18:16;18.40;83.00
75451;DHT22;64029;48.244;9.188;2023-08-21T04:20:43;18.40;83.10
75451;DHT22;64029;48.244;9.188;2023-08-21T04:23:10;18.40;82.90
75451;DHT22;64029;48.244;9.188;2023-08-21T04:25:36;18.40;82.80
75451;DHT22;64029;48.244;9.188;2023-08-21T04:28:03;18.30;82.50
75451;DHT22;64029;48.244;9.188;2023-08-21T04:30:32;18.30;82.70
75451;DHT22;64029;48.244;9.188;2023-08-21T04:32:59;18.30;82.80
75451;DHT22;64029;48.244;9.188;2023-08-21T04:35:26;18.30;82.80
75451;DHT22;64029;48.244;9.188;2023-08-21T04:37:54;18.20;82.80
75451;DHT22;64029;48.244;9.188;2023-08-21T04:40:20;18.20;82.60
75451;DHT22;64029;48.244;9.188;2023-08-21T04:42:47;18.20;83.00
75451;DHT22;64029;48.244;9.188;2023-08-21T04:45:14;18.20;83.20
75451;DHT22;64029;48.244;9.188;2023-08-21T04:47:42;18.20;82.80
75451;DHT22;64029;48.244;9.188;2023-08-21T04:50:09;18.20;83.10
75451;DHT22;64029;48.244;9.188;2023-08-21T04:52:36;18.10;82.90
75451;DHT22;64029;48.244;9.188;2023-08-21T04:55:03;18.20;83.40
75451;DHT22;64029;48.244;9.188;2023-08-21T04:57:31;18.10;83.30
75451;DHT22;64029;48.244;9.188;2023-08-21T04:59:57;18.10;83.00
75451;DHT22;64029;48.244;9.188;2023-08-21T05:02:24;18.10;82.80
75451;DHT22;64029;48.244;9.188;2023-08-21T05:04:53;18.10;82.90
75451;DHT22;64029;48.244;9.188;2023-08-21T05:07:20;18.10;82.90
75451;DHT22;64029;48.244;9.188;2023-08-21T05:09:46;18.10;83.50
75451;DHT22;64029;48.244;9.188;2023-08-21T05:12:13;18.10;83.50
75451;DHT22;64029;48.244;9.188;2023-08-21T05:14:40;18.10;83.30
75451;DHT22;64029;48.244;9.188;2023-08-21T05:17:07;18.10;83.60
75451;DHT22;64029;48.244;9.188;2023-08-21T05:19:34;18.10;83.30
75451;DHT22;64029;48.244;9.188;2023-08-21T05:22:02;18.10;83.40
75451;DHT22;64029;48.244;9.188;2023-08-21T05:24:29;18.10;83.50
75451;DHT22;64029;48.244;9.188;2023-08-21T05:26:56;18.10;83.50
75451;DHT22;64029;48.244;9.188;2023-08-21T05:29:23;18.10;84.30
75451;DHT22;64029;48.244;9.188;2023-08-21T05:31:49;18.10;83.90
75451;DHT22;64029;48.244;9.188;2023-08-21T05:34:16;18.10;83.80
75451;DHT22;64029;48.244;9.188;2023-08-21T05:36:43;18.10;84.50
75451;DHT22;64029;48.244;9.188;2023-08-21T05:39:11;18.10;84.10
75451;DHT22;64029;48.244;9.188;2023-08-21T05:41:38;18.10;84.50
75451;DHT22;64029;48.244;9.188;2023-08-21T05:44:05;18.10;84.40
75451;DHT22;64029;48.244;9.188;2023-08-21T05:46:32;18.10;84.50
75451;DHT22;64029;48.244;9.188;2023-08-21T05:48:59;18.10;85.00
75451;DHT22;64029;48.244;9.188;2023-08-21T05:51:25;18.10;85.30
75451;DHT22;64029;48.244;9.188;2023-08-21T05:53:52;18.10;85.10
75451;DHT22;64029;48.244;9.188;2023-08-21T05:56:21;18.20;84.80
75451;DHT22;64029;48.244;9.188;2023-08-21T05:58:48;18.20;85.40
75451;DHT22;64029;48.244;9.188;2023-08-21T06:01:15;18.20;86.50
75451;DHT22;64029;48.244;9.188;2023-08-21T06:03:42;18.30;86.80
75451;DHT22;64029;48.244;9.188;2023-08-21T06:06:09;18.40;85.60
75451;DHT22;64029;48.244;9.188;2023-08-21T06:08:36;18.50;83.90
75451;DHT22;64029;48.244;9.188;2023-08-21T06:11:02;18.60;83.80
75451;DHT22;64029;48.244;9.188;2023-08-21T06:13:31;18.70;83.40
75451;DHT22;64029;48.244;9.188;2023-08-21T06:15:57;18.90;83.30
75451;DHT22;64029;48.244;9.188;2023-08-21T06:18:24;19.00;83.80
75451;DHT22;64029;48.244;9.188;2023-08-21T06:20:51;19.10;84.30
75451;DHT22;64029;48.244;9.188;2023-08-21T06:23:19;19.30;84.70
75451;DHT22;64029;48.244;9.188;2023-08-21T06:25:47;19.40;84.60
75451;DHT22;64029;48.244;9.188;2023-08-21T06:28:15;19.50;85.00
75451;DHT22;64029;48.244;9.188;2023-08-21T06:30:43;19.70;86.00
75451;DHT22;64029;48.244;9.188;2023-08-21T06:33:10;19.80;85.80
75451;DHT22;64029;48.244;9.188;2023-08-21T06:35:37;19.90;86.00
75451;DHT22;64029;48.244;9.188;2023-08-21T06:38:04;20.00;86.30
75451;DHT22;64029;48.244;9.188;2023-08-21T06:40:31;20.20;86.20
75451;DHT22;64029;48.244;9.188;2023-08-21T06:42:57;20.30;87.60
75451;DHT22;64029;48.244;9.188;2023-08-21T06:45:24;20.50;86.90
75451;DHT22;64029;48.244;9.188;2023-08-21T06:47:55;20.60;86.60
75451;DHT22;64029;48.244;9.188;2023-08-21T06:50:22;20.80;87.30
75451;DHT22;64029;48.244;9.188;2023-08-21T06:52:48;21.00;87.40
75451;DHT22;64029;48.244;9.188;2023-08-21T06:55:15;21.20;88.10
75451;DHT22;64029;48.244;9.188;2023-08-21T06:57:42;21.50;88.00
75451;DHT22;64029;48.244;9.188;2023-08-21T07:00:10;21.70;87.90
75451;DHT22;64029;48.244;9.188;2023-08-21T07:02:37;22.00;88.40
75451;DHT22;64029;48.244;9.188;2023-08-21T07:05:06;22.10;88.10
75451;DHT22;64029;48.244;9.188;2023-08-21T07:07:33;22.40;87.80
75451;DHT22;64029;48.244;9.188;2023-08-21T07:10:00;22.60;88.00
75451;DHT22;64029;48.244;9.188;2023-08-21T07:12:28;22.80;87.80
75451;DHT22;64029;48.244;9.188;2023-08-21T07:14:56;23.00;87.30
75451;DHT22;64029;48.244;9.188;2023-08-21T07:17:23;23.10;86.70
75451;DHT22;64029;48.244;9.188;2023-08-21T07:19:49;23.30;86.50
75451;DHT22;64029;48.244;9.188;2023-08-21T07:22:20;23.50;86.40
75451;DHT22;64029;48.244;9.188;2023-08-21T07:24:47;23.60;85.70
75451;DHT22;64029;48.244;9.188;2023-08-21T07:27:14;23.80;85.90
75451;DHT22;64029;48.244;9.188;2023-08-21T07:29:40;23.90;85.10
75451;DHT22;64029;48.244;9.188;2023-08-21T07:32:07;24.10;84.90
75451;DHT22;64029;48.244;9.188;2023-08-21T07:34:34;24.20;84.60
75451;DHT22;64029;48.244;9.188;2023-08-21T07:37:01;24.40;84.30
75451;DHT22;64029;48.244;9.188;2023-08-21T07:39:29;24.50;84.00
75451;DHT22;64029;48.244;9.188;2023-08-21T07:41:56;24.70;84.00
75451;DHT22;64029;48.244;9.188;2023-08-21T07:44:22;24.80;83.20
75451;DHT22;64029;48.244;9.188;2023-08-21T07:46:49;24.90;83.30
75451;DHT22;64029;48.244;9.188;2023-08-21T07:49:16;25.00;83.10
75451;DHT22;64029;48.244;9.188;2023-08-21T07:51:43;25.10;82.00
75451;DHT22;64029;48.244;9.188;2023-08-21T07:54:10;25.20;82.40
75451;DHT22;64029;48.244;9.188;2023-08-21T07:56:38;25.40;80.90
75451;DHT22;64029;48.244;9.188;2023-08-21T07:59:06;25.40;81.00
75451;DHT22;64029;48.244;9.188;2023-08-21T08:01:33;25.40;81.10
75451;DHT22;64029;48.244;9.188;2023-08-21T08:04:00;25.50;81.10
75451;DHT22;64029;48.244;9.188;2023-08-21T08:06:26;25.60;80.80
75451;DHT22;64029;48.244;9.188;2023-08-21T08:08:53;25.70;80.80
75451;DHT22;64029;48.244;9.188;2023-08-21T08:11:20;25.70;81.10
75451;DHT22;64029;48.244;9.188;2023-08-21T08:13:48;25.70;80.20
75451;DHT22;64029;48.244;9.188;2023-08-21T08:16:15;25.70;79.30
75451;DHT22;64029;48.244;9.188;2023-08-21T08:18:42;25.80;80.10
75451;DHT22;64029;48.244;9.188;2023-08-21T08:21:09;25.80;79.30
75451;DHT22;64029;48.244;9.188;2023-08-21T08:23:36;25.80;79.10
75451;DHT22;64029;48.244;9.188;2023-08-21T08:26:03;25.90;79.20
75451;DHT22;64029;48.244;9.188;2023-08-21T08:28:30;26.00;78.70
75451;DHT22;64029;48.244;9.188;2023-08-21T08:30:58;26.00;78.50
75451;DHT22;64029;48.244;9.188;2023-08-21T08:33:26;26.00;77.50
75451;DHT22;64029;48.244;9.188;2023-08-21T08:35:53;26.00;76.30
75451;DHT22;64029;48.244;9.188;2023-08-21T08:38:19;26.00;76.80
75451;DHT22;64029;48.244;9.188;2023-08-21T08:40:47;26.00;75.80
75451;DHT22;64029;48.244;9.188;2023-08-21T08:43:13;26.00;77.00
75451;DHT22;64029;48.244;9.188;2023-08-21T08:45:41;26.10;76.10
75451;DHT22;64029;48.244;9.188;2023-08-21T08:48:10;26.10;76.20
75451;DHT22;64029;48.244;9.188;2023-08-21T08:50:37;26.10;75.80
75451;DHT22;64029;48.244;9.188;2023-08-21T08:53:06;26.20;77.00
75451;DHT22;64029;48.244;9.188;2023-08-21T08:55:33;26.20;76.80
75451;DHT22;64029;48.244;9.188;2023-08-21T08:58:00;26.20;75.20
75451;DHT22;64029;48.244;9.188;2023-08-21T09:00:27;26.20;75.80
75451;DHT22;64029;48.244;9.188;2023-08-21T09:02:54;26.20;76.20
75451;DHT22;64029;48.244;9.188;2023-08-21T09:05:23;26.20;76.40
75451;DHT22;64029;48.244;9.188;2023-08-21T09:08:02;26.30;76.50
75451;DHT22;64029;48.244;9.188;2023-08-21T09:10:29;26.30;75.20
75451;DHT22;64029;48.244;9.188;2023-08-21T09:12:57;26.30;75.60
75451;DHT22;64029;48.244;9.188;2023-08-21T09:15:28;26.30;76.20
75451;DHT22;64029;48.244;9.188;2023-08-21T09:17:55;26.30;75.20
75451;DHT22;64029;48.244;9.188;2023-08-21T09:20:23;26.30;74.60
75451;DHT22;64029;48.244;9.188;2023-08-21T09:22:53;26.30;75.60
75451;DHT22;64029;48.244;9.188;2023-08-21T09:25:22;26.40;75.40
75451;DHT22;64029;48.244;9.188;2023-08-21T09:27:51;26.40;73.90
75451;DHT22;64029;48.244;9.188;2023-08-21T09:30:19;26.50;74.40
75451;DHT22;64029;48.244;9.188;2023-08-21T09:32:53;26.50;74.60
75451;DHT22;64029;48.244;9.188;2023-08-21T09:35:22;26.50;74.70
75451;DHT22;64029;48.244;9.188;2023-08-21T09:37:49;26.50;74.20
75451;DHT22;64029;48.244;9.188;2023-08-21T09:40:18;26.50;73.50
75451;DHT22;64029;48.244;9.188;2023-08-21T09:42:45;26.60;73.50
75451;DHT22;64029;48.244;9.188;2023-08-21T09:45:13;26.60;73.70
75451;DHT22;64029;48.244;9.188;2023-08-21T09:47:40;26.60;74.10
75451;DHT22;64029;48.244;9.188;2023-08-21T09:50:07;26.60;73.60
75451;DHT22;64029;48.244;9.188;2023-08-21T09:52:36;26.60;73.30
75451;DHT22;64029;48.244;9.188;2023-08-21T09:55:04;26.60;71.60
75451;DHT22;64029;48.244;9.188;2023-08-21T09:57:33;26.60;72.30
75451;DHT22;64029;48.244;9.188;2023-08-21T10:00:02;26.60;71.30
75451;DHT22;64029;48.244;9.188;2023-08-21T10:02:42;26.70;72.70
75451;DHT22;64029;48.244;9.188;2023-08-21T10:05:12;26.70;72.20
75451;DHT22;64029;48.244;9.188;2023-08-21T10:07:41;26.70;71.50
75451;DHT22;64029;48.244;9.188;2023-08-21T10:10:09;26.70;71.50
75451;DHT22;64029;48.244;9.188;2023-08-21T10:12:37;26.80;71.50
75451;DHT22;64029;48.244;9.188;2023-08-21T10:15:05;26.90;72.30
75451;DHT22;64029;48.244;9.188;2023-08-21T10:17:35;26.90;71.10
75451;DHT22;64029;48.244;9.188;2023-08-21T10:20:03;26.90;70.50
75451;DHT22;64029;48.244;9.188;2023-08-21T10:22:39;26.90;70.80
75451;DHT22;64029;48.244;9.188;2023-08-21T10:25:15;27.10;70.40
75451;DHT22;64029;48.244;9.188;2023-08-21T10:27:43;27.10;69.90
75451;DHT22;64029;48.244;9.188;2023-08-21T10:30:20;27.00;69.80
75451;DHT22;64029;48.244;9.188;2023-08-21T10:32:48;27.10;69.60
75451;DHT22;64029;48.244;9.188;2023-08-21T10:35:15;27.00;69.50
75451;DHT22;64029;48.244;9.188;2023-08-21T10:38:11;27.00;69.60
75451;DHT22;64029;48.244;9.188;2023-08-21T10:40:40;27.10;70.30
75451;DHT22;64029;48.244;9.188;2023-08-21T10:43:37;27.10;69.40
75451;DHT22;64029;48.244;9.188;2023-08-21T10:46:06;27.10;69.00
75451;DHT22;64029;48.244;9.188;2023-08-21T10:48:33;27.10;69.30
75451;DHT22;64029;48.244;9.188;2023-08-21T10:51:01;27.20;70.10
75451;DHT22;64029;48.244;9.188;2023-08-21T10:53:28;27.20;70.00
75451;DHT22;64029;48.244;9.188;2023-08-21T10:55:59;27.30;70.40
75451;DHT22;64029;48.244;9.188;2023-08-21T10:58:27;27.20;69.80
75451;DHT22;64029;48.244;9.188;2023-08-21T11:00:57;27.30;69.80
75451;DHT22;64029;48.244;9.188;2023-08-21T11:03:24;27.30;70.20
75451;DHT22;64029;48.244;9.188;2023-08-21T11:06:02;27.30;69.90
75451;DHT22;64029;48.244;9.188;2023-08-21T11:08:29;27.40;69.60
75451;DHT22;64029;48.244;9.188;2023-08-21T11:10:57;27.40;69.70
75451;DHT22;64029;48.244;9.188;2023-08-21T11:13:24;27.40;69.60
75451;DHT22;64029;48.244;9.188;2023-08-21T11:15:57;27.50;69.70
75451;DHT22;64029;48.244;9.188;2023-08-21T11:18:30;27.50;69.50
75451;DHT22;64029;48.244;9.188;2023-08-21T11:21:03;27.50;69.70
75451;DHT22;64029;48.244;9.188;2023-08-21T11:23:32;27.50;68.50
75451;DHT22;64029;48.244;9.188;2023-08-21T11:26:01;27.50;68.40
75451;DHT22;64029;48.244;9.188;2023-08-21T11:28:30;27.60;67.90
75451;DHT22;64029;48.244;9.188;2023-08-21T11:30:57;27.60;67.70
75451;DHT22;64029;48.244;9.188;2023-08-21T11:33:24;27.70;67.80
75451;DHT22;64029;48.244;9.188;2023-08-21T11:35:51;27.80;67.70
75451;DHT22;64029;48.244;9.188;2023-08-21T11:38:20;27.80;67.10
75451;DHT22;64029;48.244;9.188;2023-08-21T11:40:54;27.80;67.70
75451;DHT22;64029;48.244;9.188;2023-08-21T11:43:33;27.80;67.70
75451;DHT22;64029;48.244;9.188;2023-08-21T11:46:01;27.80;67.60
75451;DHT22;64029;48.244;9.188;2023-08-21T11:48:28;27.80;68.00
75451;DHT22;64029;48.244;9.188;2023-08-21T11:50:55;27.90;67.70
75451;DHT22;64029;48.244;9.188;2023-08-21T11:53:32;27.90;68.70
75451;DHT22;64029;48.244;9.188;2023-08-21T11:55:59;27.90;68.40
75451;DHT22;64029;48.244;9.188;2023-08-21T11:58:28;27.90;67.60
75451;DHT22;64029;48.244;9.188;2023-08-21T12:00:55;27.90;66.80
75451;DHT22;64029;48.244;9.188;2023-08-21T12:03:29;27.80;67.20
75451;DHT22;64029;48.244;9.188;2023-08-21T12:05:56;27.80;67.20
75451;DHT22;64029;48.244;9.188;2023-08-21T12:08:23;27.80;67.50
75451;DHT22;64029;48.244;9.188;2023-08-21T12:10:51;27.80;67.50
75451;DHT22;64029;48.244;9.188;2023-08-21T12:13:18;27.80;67.40
75451;DHT22;64029;48.244;9.188;2023-08-21T12:15:46;27.80;67.10
75451;DHT22;64029;48.244;9.188;2023-08-21T12:18:13;27.80;67.10
75451;DHT22;64029;48.244;9.188;2023-08-21T12:20:40;27.80;67.30
75451;DHT22;64029;48.244;9.188;2023-08-21T12:23:07;27.80;66.50
75451;DHT22;64029;48.244;9.188;2023-08-21T12:25:33;27.90;66.60
75451;DHT22;64029;48.244;9.188;2023-08-21T12:28:00;28.00;66.70
75451;DHT22;64029;48.244;9.188;2023-08-21T12:30:27;28.00;66.30
75451;DHT22;64029;48.244;9.188;2023-08-21T12:32:55;28.00;66.40
75451;DHT22;64029;48.244;9.188;2023-08-21T12:35:22;28.10;66.40
75451;DHT22;64029;48.244;9.188;2023-08-21T12:37:49;28.10;66.10
75451;DHT22;64029;48.244;9.188;2023-08-21T12:40:15;28.20;65.20
75451;DHT22;64029;48.244;9.188;2023-08-21T12:42:42;28.20;65.40
75451;DHT22;64029;48.244;9.188;2023-08-21T12:45:10;28.20;65.40
75451;DHT22;64029;48.244;9.188;2023-08-21T12:47:37;28.30;65.60
75451;DHT22;64029;48.244;9.188;2023-08-21T12:50:07;28.30;66.40
75451;DHT22;64029;48.244;9.188;2023-08-21T12:52:33;28.20;65.80
75451;DHT22;64029;48.244;9.188;2023-08-21T12:55:00;28.20;65.40
75451;DHT22;64029;48.244;9.188;2023-08-21T12:57:31;28.30;64.90
75451;DHT22;64029;48.244;9.188;2023-08-21T12:59:58;28.40;65.10
75451;DHT22;64029;48.244;9.188;2023-08-21T13:02:25;28.50;65.80
75451;DHT22;64029;48.244;9.188;2023-08-21T13:04:53;28.50;65.30
75451;DHT22;64029;48.244;9.188;2023-08-21T13:07:21;28.50;65.10
75451;DHT22;64029;48.244;9.188;2023-08-21T13:09:47;28.40;64.70
75451;DHT22;64029;48.244;9.188;2023-08-21T13:12:14;28.40;64.90
75451;DHT22;64029;48.244;9.188;2023-08-21T13:14:42;28.40;65.00
75451;DHT22;64029;48.244;9.188;2023-08-21T13:17:08;28.40;64.90
75451;DHT22;64029;48.244;9.188;2023-08-21T13:19:36;28.40;65.50
75451;DHT22;64029;48.244;9.188;2023-08-21T13:22:03;28.40;64.40
75451;DHT22;64029;48.244;9.188;2023-08-21T13:24:31;28.40;64.50
75451;DHT22;64029;48.244;9.188;2023-08-21T13:26:58;28.40;64.80
75451;DHT22;64029;48.244;9.188;2023-08-21T13:29:25;28.50;64.20
75451;DHT22;64029;48.244;9.188;2023-08-21T13:31:51;28.50;64.40
75451;DHT22;64029;48.244;9.188;2023-08-21T13:34:18;28.50;63.20
75451;DHT22;64029;48.244;9.188;2023-08-21T13:36:45;28.60;64.00
75451;DHT22;64029;48.244;9.188;2023-08-21T13:39:12;28.60;64.30
75451;DHT22;64029;48.244;9.188;2023-08-21T13:41:42;28.70;64.70
75451;DHT22;64029;48.244;9.188;2023-08-21T13:44:09;28.70;64.80
75451;DHT22;64029;48.244;9.188;2023-08-21T13:46:36;28.70;64.50
75451;DHT22;64029;48.244;9.188;2023-08-21T13:49:02;28.70;64.10
75451;DHT22;64029;48.244;9.188;2023-08-21T13:51:29;28.60;64.30
75451;DHT22;64029;48.244;9.188;2023-08-21T13:53:56;28.60;63.20
75451;DHT22;64029;48.244;9.188;2023-08-21T13:56:23;28.60;63.70
75451;DHT22;64029;48.244;9.188;2023-08-21T13:58:51;28.60;63.80
75451;DHT22;64029;48.244;9.188;2023-08-21T14:01:18;28.50;62.40
75451;DHT22;64029;48.244;9.188;2023-08-21T14:03:44;28.60;62.90
75451;DHT22;64029;48.244;9.188;2023-08-21T14:06:12;28.60;62.50
75451;DHT22;64029;48.244;9.188;2023-08-21T14:08:39;28.60;63.30
75451;DHT22;64029;48.244;9.188;2023-08-21T14:11:05;28.50;63.10
75451;DHT22;64029;48.244;9.188;2023-08-21T14:13:32;28.60;63.10
75451;DHT22;64029;48.244;9.188;2023-08-21T14:16:00;28.50;61.40
75451;DHT22;64029;48.244;9.188;2023-08-21T14:18:27;28.50;62.00
75451;DHT22;64029;48.244;9.188;2023-08-21T14:20:54;28.50;62.30
75451;DHT22;64029;48.244;9.188;2023-08-21T14:23:21;28.40;62.90
75451;DHT22;64029;48.244;9.188;2023-08-21T14:25:48;28.40;62.90
75451;DHT22;64029;48.244;9.188;2023-08-21T14:28:15;28.50;63.00
75451;DHT22;64029;48.244;9.188;2023-08-21T14:30:41;28.50;63.00
75451;DHT22;64029;48.244;9.188;2023-08-21T14:33:10;28.40;63.40
75451;DHT22;64029;48.244;9.188;2023-08-21T14:35:38;28.40;63.30
75451;DHT22;64029;48.244;9.188;2023-08-21T14:38:42;28.40;63.40
75451;DHT22;64029;48.244;9.188;2023-08-21T14:41:09;28.40;63.40
75451;DHT22;64029;48.244;9.188;2023-08-21T14:43:36;28.40;63.40
75451;DHT22;64029;48.244;9.188;2023-08-21T14:46:03;28.40;63.50
75451;DHT22;64029;48.244;9.188;2023-08-21T14:48:31;28.50;64.00
75451;DHT22;64029;48.244;9.188;2023-08-21T14:50:58;28.50;63.90
75451;DHT22;64029;48.244;9.188;2023-08-21T14:53:25;28.50;63.80
75451;DHT22;64029;48.244;9.188;2023-08-21T14:55:52;28.50;63.60
75451;DHT22;64029;48.244;9.188;2023-08-21T14:58:19;28.50;64.30
75451;DHT22;64029;48.244;9.188;2023-08-21T15:00:45;28.50;64.70
75451;DHT22;64029;48.244;9.188;2023-08-21T15:03:12;28.50;64.60
75451;DHT22;64029;48.244;9.188;2023-08-21T15:05:41;28.50;64.70
75451;DHT22;64029;48.244;9.188;2023-08-21T15:08:07;28.50;64.70
75451;DHT22;64029;48.244;9.188;2023-08-21T15:10:34;28.50;64.90
75451;DHT22;64029;48.244;9.188;2023-08-21T15:13:01;28.50;64.70
75451;DHT22;64029;48.244;9.188;2023-08-21T15:15:28;28.50;64.70
75451;DHT22;64029;48.244;9.188;2023-08-21T15:17:55;28.40;64.70
75451;DHT22;64029;48.244;9.188;2023-08-21T15:20:22;28.40;64.80
75451;DHT22;64029;48.244;9.188;2023-08-21T15:22:50;28.40;64.60
75451;DHT22;64029;48.244;9.188;2023-08-21T15:25:17;28.40;64.40
75451;DHT22;64029;48.244;9.188;2023-08-21T15:27:44;28.40;64.30
75451;DHT22;64029;48.244;9.188;2023-08-21T15:30:10;28.40;64.90
75451;DHT22;64029;48.244;9.188;2023-08-21T15:32:37;28.30;65.20
75451;DHT22;64029;48.244;9.188;2023-08-21T15:35:05;28.30;66.50